sensor_id;sensor_type;location;lat;lon;timestamp;temperature;humidity
25877;DHT22;13692;47.480;19.216;2023-06-19T00:01:08;16.80;99.90
25877;DHT22;13692;47.480;19.216;2023-06-19T00:03:35;16.70;99.90
25877;DHT22;13692;47.480;19.216;2023-06-19T00:06:02;16.70;99.90
25877;DHT22;13692;47.480;19.216;2023-06-19T00:08:29;16.70;99.90
25877;DHT22;13692;47.480;19.216;2023-06-19T00:10:56;16.70;99.90
25877;DHT22;13692;47.480;19.216;2023-06-19T00:13:23;16.60;99.90
25877;DHT22;13692;47.480;19.216;2023-06-19T00:15:52;16.60;99.90
25877;DHT22;13692;47.480;19.216;2023-06-19T00:18:19;16.60;99.90
25877;DHT22;13692;47.480;19.216;2023-06-19T00:20:46;16.50;99.90
25877;DHT22;13692;47.480;19.216;2023-06-19T00:23:14;16.50;99.90
25877;DHT22;13692;47.480;19.216;2023-06-19T00:25:44;16.40;99.90
25877;DHT22;13692;47.480;19.216;2023-06-19T00:28:11;16.40;99.90
25877;DHT22;13692;47.480;19.216;2023-06-19T00:30:41;16.40;99.90
25877;DHT22;13692;47.480;19.216;2023-06-19T00:33:08;16.70;99.90
25877;DHT22;13692;47.480;19.216;2023-06-19T00:35:35;16.50;99.90
25877;DHT22;13692;47.480;19.216;2023-06-19T00:38:02;16.50;99.90
25877;DHT22;13692;47.480;19.216;2023-06-19T00:40:31;16.50;99.90
25877;DHT22;13692;47.480;19.216;2023-06-19T00:42:59;16.40;99.90
25877;DHT22;13692;47.480;19.216;2023-06-19T00:45:27;16.30;99.90
25877;DHT22;13692;47.480;19.216;2023-06-19T00:47:55;16.30;99.90
25877;DHT22;13692;47.480;19.216;2023-06-19T00:50:23;16.40;99.90
25877;DHT22;13692;47.480;19.216;2023-06-19T00:52:50;16.30;99.90
25877;DHT22;13692;47.480;19.216;2023-06-19T00:55:18;16.40;99.90
25877;DHT22;13692;47.480;19.216;2023-06-19T00:57:46;16.40;99.90
25877;DHT22;13692;47.480;19.216;2023-06-19T01:00:13;16.40;99.90
25877;DHT22;13692;47.480;19.216;2023-06-19T01:02:40;16.30;99.90
25877;DHT22;13692;47.480;19.216;2023-06-19T01:05:07;16.30;99.90
25877;DHT22;13692;47.480;19.216;2023-06-19T01:10:24;16.30;99.90
25877;DHT22;13692;47.480;19.216;2023-06-19T01:12:57;16.30;99.90
25877;DHT22;13692;47.480;19.216;2023-06-19T01:15:26;16.30;99.90
25877;DHT22;13692;47.480;19.216;2023-06-19T01:17:57;16.30;99.90
25877;DHT22;13692;47.480;19.216;2023-06-19T01:20:25;16.20;99.90
25877;DHT22;13692;47.480;19.216;2023-06-19T01:22:52;16.20;99.90
25877;DHT22;13692;47.480;19.216;2023-06-19T01:25:24;16.10;99.90
25877;DHT22;13692;47.480;19.216;2023-06-19T01:27:51;16.10;99.90
25877;DHT22;13692;47.480;19.216;2023-06-19T01:30:19;16.10;99.90
25877;DHT22;13692;47.480;19.216;2023-06-19T01:35:28;16.00;99.90
25877;DHT22;13692;47.480;19.216;2023-06-19T01:37:56;16.00;99.90
25877;DHT22;13692;47.480;19.216;2023-06-19T01:40:27;16.00;99.90
25877;DHT22;13692;47.480;19.216;2023-06-19T01:42:59;16.00;99.90
25877;DHT22;13692;47.480;19.216;2023-06-19T01:45:28;16.00;99.90
25877;DHT22;13692;47.480;19.216;2023-06-19T01:47:56;16.00;99.90
25877;DHT22;13692;47.480;19.216;2023-06-19T01:50:24;16.00;99.90
25877;DHT22;13692;47.480;19.216;2023-06-19T01:52:52;16.00;99.90
25877;DHT22;13692;47.480;19.216;2023-06-19T01:55:20;15.80;99.90
25877;DHT22;13692;47.480;19.216;2023-06-19T01:57:47;15.70;99.90
25877;DHT22;13692;47.480;19.216;2023-06-19T02:00:14;15.60;99.90
25877;DHT22;13692;47.480;19.216;2023-06-19T02:02:41;15.70;99.90
25877;DHT22;13692;47.480;19.216;2023-06-19T02:05:08;15.80;99.90
25877;DHT22;13692;47.480;19.216;2023-06-19T02:07:35;15.70;99.90
25877;DHT22;13692;47.480;19.216;2023-06-19T02:10:03;15.70;99.90
25877;DHT22;13692;47.480;19.216;2023-06-19T02:12:31;15.70;99.90
25877;DHT22;13692;47.480;19.216;2023-06-19T02:14:58;15.70;99.90
25877;DHT22;13692;47.480;19.216;2023-06-19T02:17:25;15.70;99.90
25877;DHT22;13692;47.480;19.216;2023-06-19T02:19:52;15.70;99.90
25877;DHT22;13692;47.480;19.216;2023-06-19T02:22:19;15.70;99.90
25877;DHT22;13692;47.480;19.216;2023-06-19T02:24:46;15.70;99.90
25877;DHT22;13692;47.480;19.216;2023-06-19T02:27:13;15.70;99.90
25877;DHT22;13692;47.480;19.216;2023-06-19T02:29:40;15.60;99.90
25877;DHT22;13692;47.480;19.216;2023-06-19T02:32:07;15.50;99.90
25877;DHT22;13692;47.480;19.216;2023-06-19T02:34:34;15.50;99.90
25877;DHT22;13692;47.480;19.216;2023-06-19T02:37:01;15.40;99.90
25877;DHT22;13692;47.480;19.216;2023-06-19T02:39:29;15.50;99.90
25877;DHT22;13692;47.480;19.216;2023-06-19T02:41:56;15.50;99.90
25877;DHT22;13692;47.480;19.216;2023-06-19T02:44:23;15.60;99.90
25877;DHT22;13692;47.480;19.216;2023-06-19T02:46:50;15.70;99.90
25877;DHT22;13692;47.480;19.216;2023-06-19T02:49:17;15.70;99.90
25877;DHT22;13692;47.480;19.216;2023-06-19T02:51:44;15.80;99.90
25877;DHT22;13692;47.480;19.216;2023-06-19T02:54:11;15.80;99.90
25877;DHT22;13692;47.480;19.216;2023-06-19T02:56:38;15.80;99.90
25877;DHT22;13692;47.480;19.216;2023-06-19T02:59:05;15.80;99.90
25877;DHT22;13692;47.480;19.216;2023-06-19T03:01:32;15.80;99.90
25877;DHT22;13692;47.480;19.216;2023-06-19T03:04:00;15.80;99.90
25877;DHT22;13692;47.480;19.216;2023-06-19T03:06:27;15.90;99.90
25877;DHT22;13692;47.480;19.216;2023-06-19T03:08:54;15.90;99.90
25877;DHT22;13692;47.480;19.216;2023-06-19T03:11:21;15.90;99.90
25877;DHT22;13692;47.480;19.216;2023-06-19T03:13:51;15.90;99.90
25877;DHT22;13692;47.480;19.216;2023-06-19T03:16:18;16.00;99.90
25877;DHT22;13692;47.480;19.216;2023-06-19T03:18:46;16.00;99.90
25877;DHT22;13692;47.480;19.216;2023-06-19T03:21:18;16.00;99.90
25877;DHT22;13692;47.480;19.216;2023-06-19T03:23:46;16.10;99.90
25877;DHT22;13692;47.480;19.216;2023-06-19T03:26:13;16.20;99.90
25877;DHT22;13692;47.480;19.216;2023-06-19T03:28:40;16.30;99.90
25877;DHT22;13692;47.480;19.216;2023-06-19T03:31:07;16.30;99.90
25877;DHT22;13692;47.480;19.216;2023-06-19T03:33:34;16.30;99.90
25877;DHT22;13692;47.480;19.216;2023-06-19T03:36:01;16.40;99.90
25877;DHT22;13692;47.480;19.216;2023-06-19T03:38:28;16.60;99.90
25877;DHT22;13692;47.480;19.216;2023-06-19T03:40:55;16.80;99.90
25877;DHT22;13692;47.480;19.216;2023-06-19T03:43:22;16.90;99.90
25877;DHT22;13692;47.480;19.216;2023-06-19T03:45:49;16.90;99.90
25877;DHT22;13692;47.480;19.216;2023-06-19T03:48:17;17.00;99.90
25877;DHT22;13692;47.480;19.216;2023-06-19T03:50:44;17.10;99.90
25877;DHT22;13692;47.480;19.216;2023-06-19T03:53:11;17.20;99.90
25877;DHT22;13692;47.480;19.216;2023-06-19T03:55:39;17.20;99.90
25877;DHT22;13692;47.480;19.216;2023-06-19T03:58:06;17.10;99.90
25877;DHT22;13692;47.480;19.216;2023-06-19T04:00:33;17.20;99.90
25877;DHT22;13692;47.480;19.216;2023-06-19T04:03:00;17.20;99.90
25877;DHT22;13692;47.480;19.216;2023-06-19T04:05:27;17.20;99.90
25877;DHT22;13692;47.480;19.216;2023-06-19T04:07:54;17.30;99.90
25877;DHT22;13692;47.480;19.216;2023-06-19T04:10:21;17.40;99.90
25877;DHT22;13692;47.480;19.216;2023-06-19T04:12:48;17.40;99.90
25877;DHT22;13692;47.480;19.216;2023-06-19T04:15:15;17.30;99.90
25877;DHT22;13692;47.480;19.216;2023-06-19T04:17:42;17.30;99.90
25877;DHT22;13692;47.480;19.216;2023-06-19T04:20:10;17.30;99.90
25877;DHT22;13692;47.480;19.216;2023-06-19T04:22:39;17.30;99.90
25877;DHT22;13692;47.480;19.216;2023-06-19T04:25:07;17.40;99.90
25877;DHT22;13692;47.480;19.216;2023-06-19T04:27:35;17.80;99.90
25877;DHT22;13692;47.480;19.216;2023-06-19T04:30:05;18.00;99.90
25877;DHT22;13692;47.480;19.216;2023-06-19T04:32:34;18.60;99.90
25877;DHT22;13692;47.480;19.216;2023-06-19T04:35:09;18.80;99.90
25877;DHT22;13692;47.480;19.216;2023-06-19T04:37:36;18.90;99.90
25877;DHT22;13692;47.480;19.216;2023-06-19T04:40:04;18.90;99.90
25877;DHT22;13692;47.480;19.216;2023-06-19T04:42:31;18.90;99.90
25877;DHT22;13692;47.480;19.216;2023-06-19T04:44:58;19.10;99.90
25877;DHT22;13692;47.480;19.216;2023-06-19T04:47:26;19.70;99.90
25877;DHT22;13692;47.480;19.216;2023-06-19T04:50:07;20.40;99.90
25877;DHT22;13692;47.480;19.216;2023-06-19T04:52:34;21.00;99.90
25877;DHT22;13692;47.480;19.216;2023-06-19T04:55:01;21.60;99.90
25877;DHT22;13692;47.480;19.216;2023-06-19T04:57:28;21.50;99.90
25877;DHT22;13692;47.480;19.216;2023-06-19T04:59:55;21.00;99.90
25877;DHT22;13692;47.480;19.216;2023-06-19T05:02:22;20.60;99.90
25877;DHT22;13692;47.480;19.216;2023-06-19T05:04:50;20.50;99.90
25877;DHT22;13692;47.480;19.216;2023-06-19T05:07:17;20.90;99.90
25877;DHT22;13692;47.480;19.216;2023-06-19T05:09:44;21.50;99.90
25877;DHT22;13692;47.480;19.216;2023-06-19T05:12:12;21.80;99.90
25877;DHT22;13692;47.480;19.216;2023-06-19T05:14:39;22.20;99.90
25877;DHT22;13692;47.480;19.216;2023-06-19T05:17:06;22.70;99.90
25877;DHT22;13692;47.480;19.216;2023-06-19T05:19:33;23.00;99.90
25877;DHT22;13692;47.480;19.216;2023-06-19T05:22:00;22.90;99.90
25877;DHT22;13692;47.480;19.216;2023-06-19T05:24:27;23.00;99.90
25877;DHT22;13692;47.480;19.216;2023-06-19T05:26:54;23.60;99.90
25877;DHT22;13692;47.480;19.216;2023-06-19T05:29:21;23.80;99.90
25877;DHT22;13692;47.480;19.216;2023-06-19T05:31:48;23.60;99.90
25877;DHT22;13692;47.480;19.216;2023-06-19T05:34:15;23.70;99.90
25877;DHT22;13692;47.480;19.216;2023-06-19T05:36:42;24.20;99.90
25877;DHT22;13692;47.480;19.216;2023-06-19T05:39:13;24.30;99.90
25877;DHT22;13692;47.480;19.216;2023-06-19T05:41:41;25.20;99.90
25877;DHT22;13692;47.480;19.216;2023-06-19T05:44:08;25.50;99.90
25877;DHT22;13692;47.480;19.216;2023-06-19T05:46:36;25.20;99.90
25877;DHT22;13692;47.480;19.216;2023-06-19T05:49:03;25.30;99.90
25877;DHT22;13692;47.480;19.216;2023-06-19T05:51:30;25.00;99.90
25877;DHT22;13692;47.480;19.216;2023-06-19T05:53:57;25.00;99.90
25877;DHT22;13692;47.480;19.216;2023-06-19T05:56:33;25.50;99.90
25877;DHT22;13692;47.480;19.216;2023-06-19T05:59:00;25.40;99.90
25877;DHT22;13692;47.480;19.216;2023-06-19T06:01:31;25.70;99.90
25877;DHT22;13692;47.480;19.216;2023-06-19T06:03:58;26.40;99.90
25877;DHT22;13692;47.480;19.216;2023-06-19T06:06:25;26.90;99.90
25877;DHT22;13692;47.480;19.216;2023-06-19T06:08:52;27.50;99.90
25877;DHT22;13692;47.480;19.216;2023-06-19T06:11:22;27.60;99.90
25877;DHT22;13692;47.480;19.216;2023-06-19T06:13:49;27.80;99.90
25877;DHT22;13692;47.480;19.216;2023-06-19T06:16:16;27.80;99.90
25877;DHT22;13692;47.480;19.216;2023-06-19T06:18:44;27.60;99.90
25877;DHT22;13692;47.480;19.216;2023-06-19T06:21:11;28.00;99.90
25877;DHT22;13692;47.480;19.216;2023-06-19T06:23:41;28.60;99.90
25877;DHT22;13692;47.480;19.216;2023-06-19T06:26:08;28.90;99.50
25877;DHT22;13692;47.480;19.216;2023-06-19T06:28:35;29.10;98.40
25877;DHT22;13692;47.480;19.216;2023-06-19T06:31:02;29.30;98.20
25877;DHT22;13692;47.480;19.216;2023-06-19T06:33:29;29.40;96.90
25877;DHT22;13692;47.480;19.216;2023-06-19T06:35:57;29.10;96.50
25877;DHT22;13692;47.480;19.216;2023-06-19T06:38:25;29.30;97.40
25877;DHT22;13692;47.480;19.216;2023-06-19T06:40:52;29.60;97.30
25877;DHT22;13692;47.480;19.216;2023-06-19T06:43:19;30.00;96.80
25877;DHT22;13692;47.480;19.216;2023-06-19T06:45:46;30.20;95.50
25877;DHT22;13692;47.480;19.216;2023-06-19T06:48:13;30.20;95.60
25877;DHT22;13692;47.480;19.216;2023-06-19T06:50:40;30.30;94.60
25877;DHT22;13692;47.480;19.216;2023-06-19T06:53:08;30.30;94.90
25877;DHT22;13692;47.480;19.216;2023-06-19T06:55:35;30.00;94.70
25877;DHT22;13692;47.480;19.216;2023-06-19T06:58:02;30.00;95.30
25877;DHT22;13692;47.480;19.216;2023-06-19T07:00:29;29.90;94.70
25877;DHT22;13692;47.480;19.216;2023-06-19T07:02:56;30.40;94.40
25877;DHT22;13692;47.480;19.216;2023-06-19T07:05:23;30.70;93.90
25877;DHT22;13692;47.480;19.216;2023-06-19T07:07:50;30.70;93.30
25877;DHT22;13692;47.480;19.216;2023-06-19T07:10:17;30.80;92.10
25877;DHT22;13692;47.480;19.216;2023-06-19T07:12:47;30.60;91.50
25877;DHT22;13692;47.480;19.216;2023-06-19T07:15:15;30.70;91.90
25877;DHT22;13692;47.480;19.216;2023-06-19T07:17:46;31.00;91.40
25877;DHT22;13692;47.480;19.216;2023-06-19T07:20:14;30.80;90.40
25877;DHT22;13692;47.480;19.216;2023-06-19T07:22:42;30.80;90.30
25877;DHT22;13692;47.480;19.216;2023-06-19T07:25:12;30.80;89.90
25877;DHT22;13692;47.480;19.216;2023-06-19T07:27:40;30.60;90.00
25877;DHT22;13692;47.480;19.216;2023-06-19T07:30:08;30.80;90.00
25877;DHT22;13692;47.480;19.216;2023-06-19T07:32:35;31.00;90.70
25877;DHT22;13692;47.480;19.216;2023-06-19T07:35:02;31.40;90.10
25877;DHT22;13692;47.480;19.216;2023-06-19T07:37:29;31.90;91.10
25877;DHT22;13692;47.480;19.216;2023-06-19T07:39:56;32.10;85.70
25877;DHT22;13692;47.480;19.216;2023-06-19T07:42:23;31.90;83.70
25877;DHT22;13692;47.480;19.216;2023-06-19T07:44:50;31.70;84.30
25877;DHT22;13692;47.480;19.216;2023-06-19T07:47:17;31.90;81.80
25877;DHT22;13692;47.480;19.216;2023-06-19T07:49:45;31.80;78.40
25877;DHT22;13692;47.480;19.216;2023-06-19T07:52:12;31.60;80.50
25877;DHT22;13692;47.480;19.216;2023-06-19T07:57:21;31.50;81.40
25877;DHT22;13692;47.480;19.216;2023-06-19T07:59:49;31.50;82.60
25877;DHT22;13692;47.480;19.216;2023-06-19T08:02:17;31.50;81.70
25877;DHT22;13692;47.480;19.216;2023-06-19T08:04:45;31.50;82.20
25877;DHT22;13692;47.480;19.216;2023-06-19T08:07:13;31.40;81.40
25877;DHT22;13692;47.480;19.216;2023-06-19T08:09:40;31.40;83.20
25877;DHT22;13692;47.480;19.216;2023-06-19T08:12:07;31.70;84.70
25877;DHT22;13692;47.480;19.216;2023-06-19T08:14:34;31.90;82.50
25877;DHT22;13692;47.480;19.216;2023-06-19T08:17:01;32.00;79.90
25877;DHT22;13692;47.480;19.216;2023-06-19T08:19:28;32.00;80.80
25877;DHT22;13692;47.480;19.216;2023-06-19T08:21:55;32.10;79.00
25877;DHT22;13692;47.480;19.216;2023-06-19T08:24:22;32.20;80.50
25877;DHT22;13692;47.480;19.216;2023-06-19T08:26:49;31.90;80.10
25877;DHT22;13692;47.480;19.216;2023-06-19T08:29:18;31.90;81.10
25877;DHT22;13692;47.480;19.216;2023-06-19T08:31:45;32.00;79.60
25877;DHT22;13692;47.480;19.216;2023-06-19T08:34:12;31.70;81.30
25877;DHT22;13692;47.480;19.216;2023-06-19T08:36:39;32.10;80.80
25877;DHT22;13692;47.480;19.216;2023-06-19T08:39:06;32.20;80.70
25877;DHT22;13692;47.480;19.216;2023-06-19T08:41:38;32.40;79.40
25877;DHT22;13692;47.480;19.216;2023-06-19T08:44:05;32.20;80.20
25877;DHT22;13692;47.480;19.216;2023-06-19T08:46:33;31.70;82.90
25877;DHT22;13692;47.480;19.216;2023-06-19T08:49:01;31.70;81.90
25877;DHT22;13692;47.480;19.216;2023-06-19T08:51:29;31.70;80.10
25877;DHT22;13692;47.480;19.216;2023-06-19T08:54:01;31.70;80.40
25877;DHT22;13692;47.480;19.216;2023-06-19T08:56:31;31.30;80.50
25877;DHT22;13692;47.480;19.216;2023-06-19T08:59:15;31.30;83.70
25877;DHT22;13692;47.480;19.216;2023-06-19T09:01:50;31.80;79.30
25877;DHT22;13692;47.480;19.216;2023-06-19T09:04:26;32.30;77.60
25877;DHT22;13692;47.480;19.216;2023-06-19T09:06:58;32.60;75.40
25877;DHT22;13692;47.480;19.216;2023-06-19T09:09:26;32.80;74.60
25877;DHT22;13692;47.480;19.216;2023-06-19T09:12:07;32.40;74.60
25877;DHT22;13692;47.480;19.216;2023-06-19T09:14:41;32.20;73.30
25877;DHT22;13692;47.480;19.216;2023-06-19T09:17:18;32.20;73.50
25877;DHT22;13692;47.480;19.216;2023-06-19T09:19:54;32.10;70.30
25877;DHT22;13692;47.480;19.216;2023-06-19T09:22:23;31.90;74.00
25877;DHT22;13692;47.480;19.216;2023-06-19T09:25:01;32.30;74.00
25877;DHT22;13692;47.480;19.216;2023-06-19T09:27:33;32.40;74.90
25877;DHT22;13692;47.480;19.216;2023-06-19T09:30:00;32.50;72.70
25877;DHT22;13692;47.480;19.216;2023-06-19T09:32:28;32.90;74.60
25877;DHT22;13692;47.480;19.216;2023-06-19T09:34:56;32.80;71.50
25877;DHT22;13692;47.480;19.216;2023-06-19T09:37:28;32.60;72.70
25877;DHT22;13692;47.480;19.216;2023-06-19T09:40:03;32.70;72.80
25877;DHT22;13692;47.480;19.216;2023-06-19T09:42:39;32.30;74.40
25877;DHT22;13692;47.480;19.216;2023-06-19T09:45:11;32.20;75.50
25877;DHT22;13692;47.480;19.216;2023-06-19T09:47:47;32.60;76.10
25877;DHT22;13692;47.480;19.216;2023-06-19T09:50:18;32.60;74.70
25877;DHT22;13692;47.480;19.216;2023-06-19T09:52:49;32.60;73.00
25877;DHT22;13692;47.480;19.216;2023-06-19T09:55:19;32.40;70.80
25877;DHT22;13692;47.480;19.216;2023-06-19T09:57:46;32.20;72.40
25877;DHT22;13692;47.480;19.216;2023-06-19T10:00:15;32.30;72.40
25877;DHT22;13692;47.480;19.216;2023-06-19T10:02:49;32.40;72.60
25877;DHT22;13692;47.480;19.216;2023-06-19T10:05:17;32.60;68.50
25877;DHT22;13692;47.480;19.216;2023-06-19T10:07:54;32.30;70.00
25877;DHT22;13692;47.480;19.216;2023-06-19T10:10:27;32.50;74.10
25877;DHT22;13692;47.480;19.216;2023-06-19T10:13:11;32.70;70.90
25877;DHT22;13692;47.480;19.216;2023-06-19T10:15:41;32.60;71.40
25877;DHT22;13692;47.480;19.216;2023-06-19T10:18:15;32.40;72.00
25877;DHT22;13692;47.480;19.216;2023-06-19T10:20:45;32.20;70.80
25877;DHT22;13692;47.480;19.216;2023-06-19T10:23:19;32.00;72.00
25877;DHT22;13692;47.480;19.216;2023-06-19T10:25:56;31.90;72.40
25877;DHT22;13692;47.480;19.216;2023-06-19T10:28:28;31.30;72.60
25877;DHT22;13692;47.480;19.216;2023-06-19T10:31:00;30.90;74.20
25877;DHT22;13692;47.480;19.216;2023-06-19T10:33:32;30.70;75.00
25877;DHT22;13692;47.480;19.216;2023-06-19T10:36:01;30.90;77.70
25877;DHT22;13692;47.480;19.216;2023-06-19T10:38:29;31.00;75.40
25877;DHT22;13692;47.480;19.216;2023-06-19T10:40:56;30.90;74.80
25877;DHT22;13692;47.480;19.216;2023-06-19T10:43:24;30.60;76.10
25877;DHT22;13692;47.480;19.216;2023-06-19T10:45:54;30.50;76.30
25877;DHT22;13692;47.480;19.216;2023-06-19T10:48:23;30.50;76.10
25877;DHT22;13692;47.480;19.216;2023-06-19T10:50:51;30.30;76.60
25877;DHT22;13692;47.480;19.216;2023-06-19T10:53:32;30.20;76.60
25877;DHT22;13692;47.480;19.216;2023-06-19T10:56:01;30.20;77.90
25877;DHT22;13692;47.480;19.216;2023-06-19T10:58:29;30.40;79.40
25877;DHT22;13692;47.480;19.216;2023-06-19T11:00:56;30.60;76.80
25877;DHT22;13692;47.480;19.216;2023-06-19T11:03:23;30.50;78.00
25877;DHT22;13692;47.480;19.216;2023-06-19T11:05:51;30.70;76.00
25877;DHT22;13692;47.480;19.216;2023-06-19T11:08:22;30.90;76.50
25877;DHT22;13692;47.480;19.216;2023-06-19T11:10:50;30.90;75.90
25877;DHT22;13692;47.480;19.216;2023-06-19T11:13:20;31.10;78.30
25877;DHT22;13692;47.480;19.216;2023-06-19T11:15:48;31.40;78.00
25877;DHT22;13692;47.480;19.216;2023-06-19T11:18:19;31.50;74.70
25877;DHT22;13692;47.480;19.216;2023-06-19T11:20:48;31.30;74.40
25877;DHT22;13692;47.480;19.216;2023-06-19T11:23:28;31.30;76.30
25877;DHT22;13692;47.480;19.216;2023-06-19T11:26:05;31.50;76.50
25877;DHT22;13692;47.480;19.216;2023-06-19T11:28:33;31.70;75.50
25877;DHT22;13692;47.480;19.216;2023-06-19T11:31:01;31.70;73.40
25877;DHT22;13692;47.480;19.216;2023-06-19T11:33:30;31.60;73.70
25877;DHT22;13692;47.480;19.216;2023-06-19T11:36:00;31.60;74.00
25877;DHT22;13692;47.480;19.216;2023-06-19T11:38:27;31.60;73.50
25877;DHT22;13692;47.480;19.216;2023-06-19T11:40:55;31.70;74.50
25877;DHT22;13692;47.480;19.216;2023-06-19T11:43:31;31.80;74.90
25877;DHT22;13692;47.480;19.216;2023-06-19T11:46:06;31.90;73.60
25877;DHT22;13692;47.480;19.216;2023-06-19T11:48:37;32.00;73.70
25877;DHT22;13692;47.480;19.216;2023-06-19T11:51:05;32.00;73.80
25877;DHT22;13692;47.480;19.216;2023-06-19T11:53:32;32.10;73.90
25877;DHT22;13692;47.480;19.216;2023-06-19T11:55:59;32.10;72.30
25877;DHT22;13692;47.480;19.216;2023-06-19T11:58:26;32.00;69.80
25877;DHT22;13692;47.480;19.216;2023-06-19T12:00:53;31.70;72.50
25877;DHT22;13692;47.480;19.216;2023-06-19T12:03:20;31.50;72.10
25877;DHT22;13692;47.480;19.216;2023-06-19T12:05:48;31.40;72.90
25877;DHT22;13692;47.480;19.216;2023-06-19T12:08:14;31.30;72.20
25877;DHT22;13692;47.480;19.216;2023-06-19T12:10:42;31.20;70.50
25877;DHT22;13692;47.480;19.216;2023-06-19T12:13:08;30.90;71.70
25877;DHT22;13692;47.480;19.216;2023-06-19T12:15:35;30.90;71.90
25877;DHT22;13692;47.480;19.216;2023-06-19T12:18:03;30.70;71.00
25877;DHT22;13692;47.480;19.216;2023-06-19T12:20:31;30.60;71.30
25877;DHT22;13692;47.480;19.216;2023-06-19T12:22:58;30.50;72.10
25877;DHT22;13692;47.480;19.216;2023-06-19T12:25:25;30.40;71.60
25877;DHT22;13692;47.480;19.216;2023-06-19T12:27:52;30.30;73.40
25877;DHT22;13692;47.480;19.216;2023-06-19T12:30:21;30.40;72.60
25877;DHT22;13692;47.480;19.216;2023-06-19T12:32:49;30.30;73.80
25877;DHT22;13692;47.480;19.216;2023-06-19T12:35:17;30.40;73.30
25877;DHT22;13692;47.480;19.216;2023-06-19T12:37:45;30.70;75.40
25877;DHT22;13692;47.480;19.216;2023-06-19T12:40:12;31.10;74.20
25877;DHT22;13692;47.480;19.216;2023-06-19T12:42:39;31.20;71.80
25877;DHT22;13692;47.480;19.216;2023-06-19T12:45:06;31.20;74.00
25877;DHT22;13692;47.480;19.216;2023-06-19T12:47:34;31.40;74.10
25877;DHT22;13692;47.480;19.216;2023-06-19T12:50:01;31.60;74.80
25877;DHT22;13692;47.480;19.216;2023-06-19T12:52:27;31.70;73.90
25877;DHT22;13692;47.480;19.216;2023-06-19T12:54:54;31.80;74.00
25877;DHT22;13692;47.480;19.216;2023-06-19T12:57:22;31.90;73.80
25877;DHT22;13692;47.480;19.216;2023-06-19T12:59:49;31.70;71.50
25877;DHT22;13692;47.480;19.216;2023-06-19T13:02:16;31.50;73.60
25877;DHT22;13692;47.480;19.216;2023-06-19T13:04:43;31.60;73.20
25877;DHT22;13692;47.480;19.216;2023-06-19T13:07:10;31.40;72.10
25877;DHT22;13692;47.480;19.216;2023-06-19T13:09:37;31.40;72.40
25877;DHT22;13692;47.480;19.216;2023-06-19T13:12:04;31.50;73.40
25877;DHT22;13692;47.480;19.216;2023-06-19T13:14:31;31.50;71.50
25877;DHT22;13692;47.480;19.216;2023-06-19T13:16:58;31.40;70.70
25877;DHT22;13692;47.480;19.216;2023-06-19T13:19:26;31.30;71.40
25877;DHT22;13692;47.480;19.216;2023-06-19T13:21:53;31.10;70.20
25877;DHT22;13692;47.480;19.216;2023-06-19T13:24:20;30.90;70.90
25877;DHT22;13692;47.480;19.216;2023-06-19T13:26:48;30.80;70.40
25877;DHT22;13692;47.480;19.216;2023-06-19T13:29:15;30.80;71.30
25877;DHT22;13692;47.480;19.216;2023-06-19T13:31:42;30.80;71.10
25877;DHT22;13692;47.480;19.216;2023-06-19T13:34:09;30.70;71.70
25877;DHT22;13692;47.480;19.216;2023-06-19T13:36:36;30.70;71.30
25877;DHT22;13692;47.480;19.216;2023-06-19T13:39:03;30.70;71.40
25877;DHT22;13692;47.480;19.216;2023-06-19T13:41:31;30.80;72.00
25877;DHT22;13692;47.480;19.216;2023-06-19T13:44:00;30.80;73.00
25877;DHT22;13692;47.480;19.216;2023-06-19T13:46:27;30.90;73.00
25877;DHT22;13692;47.480;19.216;2023-06-19T13:48:54;30.90;69.70
25877;DHT22;13692;47.480;19.216;2023-06-19T13:51:22;30.90;70.60
25877;DHT22;13692;47.480;19.216;2023-06-19T13:53:50;30.90;70.70
25877;DHT22;13692;47.480;19.216;2023-06-19T13:56:17;30.90;71.70
25877;DHT22;13692;47.480;19.216;2023-06-19T13:58:44;31.00;71.50
25877;DHT22;13692;47.480;19.216;2023-06-19T14:01:11;31.10;71.30
25877;DHT22;13692;47.480;19.216;2023-06-19T14:03:38;31.10;70.40
25877;DHT22;13692;47.480;19.216;2023-06-19T14:06:07;30.90;70.70
25877;DHT22;13692;47.480;19.216;2023-06-19T14:08:34;31.00;72.20
25877;DHT22;13692;47.480;19.216;2023-06-19T14:11:01;31.10;71.50
25877;DHT22;13692;47.480;19.216;2023-06-19T14:13:28;31.30;71.40
25877;DHT22;13692;47.480;19.216;2023-06-19T14:15:55;31.40;69.60
25877;DHT22;13692;47.480;19.216;2023-06-19T14:18:23;31.50;70.70
25877;DHT22;13692;47.480;19.216;2023-06-19T14:20:50;31.30;68.80
25877;DHT22;13692;47.480;19.216;2023-06-19T14:23:17;31.20;67.60
25877;DHT22;13692;47.480;19.216;2023-06-19T14:25:43;31.10;68.10
25877;DHT22;13692;47.480;19.216;2023-06-19T14:28:11;31.10;70.70
25877;DHT22;13692;47.480;19.216;2023-06-19T14:30:38;31.30;71.40
25877;DHT22;13692;47.480;19.216;2023-06-19T14:33:05;31.20;68.10
25877;DHT22;13692;47.480;19.216;2023-06-19T14:35:37;31.20;69.20
25877;DHT22;13692;47.480;19.216;2023-06-19T14:38:04;31.20;69.40
25877;DHT22;13692;47.480;19.216;2023-06-19T14:40:31;31.20;68.70
25877;DHT22;13692;47.480;19.216;2023-06-19T14:42:57;31.00;67.30
25877;DHT22;13692;47.480;19.216;2023-06-19T14:45:24;31.00;68.70
25877;DHT22;13692;47.480;19.216;2023-06-19T14:47:51;31.00;68.20
25877;DHT22;13692;47.480;19.216;2023-06-19T14:50:18;31.00;68.30
25877;DHT22;13692;47.480;19.216;2023-06-19T14:52:45;31.00;68.20
25877;DHT22;13692;47.480;19.216;2023-06-19T14:55:12;30.90;68.30
25877;DHT22;13692;47.480;19.216;2023-06-19T14:57:39;30.90;70.20
25877;DHT22;13692;47.480;19.216;2023-06-19T15:00:06;31.00;69.60
25877;DHT22;13692;47.480;19.216;2023-06-19T15:02:34;31.00;69.90
25877;DHT22;13692;47.480;19.216;2023-06-19T15:05:05;31.10;70.60
25877;DHT22;13692;47.480;19.216;2023-06-19T15:07:33;31.10;71.00
25877;DHT22;13692;47.480;19.216;2023-06-19T15:10:00;31.10;68.60
25877;DHT22;13692;47.480;19.216;2023-06-19T15:12:27;31.00;68.10
25877;DHT22;13692;47.480;19.216;2023-06-19T15:14:55;30.90;68.70
25877;DHT22;13692;47.480;19.216;2023-06-19T15:17:22;30.90;68.00
25877;DHT22;13692;47.480;19.216;2023-06-19T15:19:49;30.90;71.20
25877;DHT22;13692;47.480;19.216;2023-06-19T15:22:16;30.60;72.70
25877;DHT22;13692;47.480;19.216;2023-06-19T15:24:43;30.30;74.30
25877;DHT22;13692;47.480;19.216;2023-06-19T15:27:10;30.30;74.60
25877;DHT22;13692;47.480;19.216;2023-06-19T15:29:38;30.20;74.70